Time;durP1;ratioP1;P1;durP2;ratioP2;P2;SDS_P1;SDS_P2;PMS_P1;PMS_P2;Temp;Humidity;BMP_temperature;BMP_pressure;BME280_temperature;BME280_humidity;BME280_pressure;Samples;Min_cycle;Max_cycle;Signal;HPM_P1;HPM_P2
2022/05/04 00:01:34;;;;;;;13.23;10.05;;;;;;;13.44;100.00;100204.81;5074896;28;20048;-69
2022/05/04 00:04:02;;;;;;;16.02;9.98;;;;;;;13.38;100.00;100199.91;5093167;28;20128;-69
2022/05/04 00:06:30;;;;;;;13.48;9.73;;;;;;;13.34;100.00;100201.97;5074687;28;20044;-69
2022/05/04 00:08:59;;;;;;;14.63;9.35;;;;;;;13.38;100.00;100205.25;5093067;28;20048;-69
2022/05/04 00:11:28;;;;;;;13.88;9.25;;;;;;;13.42;100.00;100201.41;5095414;28;20044;-69
2022/05/04 00:13:56;;;;;;;15.63;9.63;;;;;;;13.47;100.00;100207.28;5096791;28;20044;-68
2022/05/04 00:16:25;;;;;;;16.55;9.88;;;;;;;13.33;100.00;100210.13;5078699;28;20052;-68
2022/05/04 00:18:53;;;;;;;15.68;10.55;;;;;;;13.38;100.00;100207.94;5096571;28;20089;-68
2022/05/04 00:21:21;;;;;;;14.48;9.70;;;;;;;13.42;100.00;100207.63;5096213;28;20139;-68
2022/05/04 00:23:52;;;;;;;14.38;10.63;;;;;;;13.37;100.00;100207.09;5078143;28;20122;-68
2022/05/04 00:26:20;;;;;;;15.25;9.48;;;;;;;13.20;100.00;100206.59;5078520;28;20048;-68
2022/05/04 00:28:49;;;;;;;13.90;9.73;;;;;;;13.14;100.00;100208.72;5078025;28;20048;-69
2022/05/04 00:31:17;;;;;;;13.63;9.48;;;;;;;13.16;100.00;100208.59;5078340;28;20052;-68
2022/05/04 00:33:45;;;;;;;15.98;9.98;;;;;;;13.18;100.00;100214.69;5096286;28;20043;-69
2022/05/04 00:36:14;;;;;;;14.38;9.82;;;;;;;13.13;100.00;100212.38;5078241;28;20044;-69
2022/05/04 00:38:42;;;;;;;15.82;10.10;;;;;;;13.11;100.00;100210.75;5095842;28;20048;-69
2022/05/04 00:41:13;;;;;;;13.07;10.13;;;;;;;12.97;100.00;100206.38;5078216;28;20048;-69
2022/05/04 00:43:41;;;;;;;16.10;9.95;;;;;;;12.92;100.00;100207.66;5096048;28;20063;-69
2022/05/04 00:46:18;;;;;;;13.10;9.52;;;;;;;12.83;100.00;100207.34;5096381;28;20071;-68
2022/05/04 00:48:47;;;;;;;14.65;9.55;;;;;;;12.82;100.00;100212.78;5078073;28;20048;-69
2022/05/04 00:51:16;;;;;;;14.93;10.20;;;;;;;12.78;100.00;100212.16;5096213;28;20119;-69
2022/05/04 00:53:45;;;;;;;13.48;9.80;;;;;;;12.76;100.00;100206.06;5077594;28;20442;-69
2022/05/04 00:56:14;;;;;;;12.40;9.20;;;;;;;12.98;100.00;100213.44;5095975;28;20071;-68
2022/05/04 00:58:56;;;;;;;13.55;10.05;;;;;;;12.82;100.00;100218.16;5095428;28;20044;-69
2022/05/04 01:01:28;;;;;;;15.77;9.82;;;;;;;12.59;100.00;100228.66;5096012;28;20044;-68
2022/05/04 01:03:58;;;;;;;15.02;9.80;;;;;;;12.87;100.00;100221.38;5096063;28;20542;-68
2022/05/04 01:06:29;;;;;;;15.85;9.82;;;;;;;12.88;100.00;100223.09;5095634;28;20039;-67
2022/05/04 01:09:00;;;;;;;13.88;10.02;;;;;;;12.87;100.00;100222.22;5096047;28;20048;-68
2022/05/04 01:11:31;;;;;;;13.85;9.85;;;;;;;12.95;100.00;100224.38;5095795;28;20047;-68
2022/05/04 01:14:01;;;;;;;11.98;9.68;;;;;;;12.91;100.00;100222.88;5095605;28;20054;-68
2022/05/04 01:16:34;;;;;;;14.93;10.13;;;;;;;12.74;100.00;100221.38;5095670;28;20089;-68
2022/05/04 01:19:04;;;;;;;13.05;10.85;;;;;;;12.50;100.00;100223.91;5095791;28;20048;-68
2022/05/04 01:21:32;;;;;;;14.93;9.75;;;;;;;12.43;100.00;100229.78;5076141;28;20497;-71
2022/05/04 01:24:03;;;;;;;12.32;9.38;;;;;;;12.42;100.00;100230.75;5095415;28;20040;-68
2022/05/04 01:26:34;;;;;;;13.80;9.88;;;;;;;12.43;100.00;100229.78;5077163;28;20123;-68
2022/05/04 01:29:03;;;;;;;15.60;10.07;;;;;;;12.67;100.00;100222.78;5077184;28;20054;-69
2022/05/04 01:31:32;;;;;;;13.15;10.15;;;;;;;12.58;100.00;100220.72;5095669;28;20085;-69
2022/05/04 01:34:01;;;;;;;14.35;9.98;;;;;;;12.31;100.00;100229.66;5077059;28;20044;-68
2022/05/04 01:36:29;;;;;;;16.42;10.43;;;;;;;12.36;100.00;100221.34;5095208;28;20071;-69
2022/05/04 01:38:57;;;;;;;19.48;11.25;;;;;;;12.31;100.00;100223.47;5094961;28;20050;-69
2022/05/04 01:44:13;;;;;;;18.83;12.45;;;;;;;12.25;100.00;100222.03;5095219;28;20040;-69
2022/05/04 01:46:41;;;;;;;20.35;12.90;;;;;;;12.17;100.00;100207.50;5094466;28;20078;-70
2022/05/04 01:49:10;;;;;;;15.05;11.40;;;;;;;12.12;100.00;100209.63;5094704;28;20048;-69
2022/05/04 01:51:38;;;;;;;16.13;12.50;;;;;;;12.13;100.00;100205.97;5094898;28;20119;-69
2022/05/04 01:54:07;;;;;;;18.15;12.55;;;;;;;12.23;100.00;100212.41;5094619;28;20119;-69
2022/05/04 01:56:36;;;;;;;15.75;11.48;;;;;;;12.40;100.00;100213.97;5094768;28;20110;-70
2022/05/04 01:59:07;;;;;;;19.20;11.48;;;;;;;12.42;100.00;100215.56;5095007;28;20047;-69
2022/05/04 02:01:37;;;;;;;17.33;11.80;;;;;;;12.18;100.00;100217.25;5094268;28;20040;-70
2022/05/04 02:04:07;;;;;;;15.93;11.75;;;;;;;12.20;100.00;100204.63;5094819;28;20078;-67
2022/05/04 02:06:36;;;;;;;16.17;11.93;;;;;;;12.04;100.00;100219.00;5094450;28;20477;-71
2022/05/04 02:09:06;;;;;;;16.52;11.77;;;;;;;11.93;100.00;100218.88;5094611;28;20135;-67
2022/05/04 02:11:37;;;;;;;16.23;11.45;;;;;;;12.09;100.00;100213.38;5094680;28;20093;-68
2022/05/04 02:14:06;;;;;;;14.32;11.10;;;;;;;12.18;100.00;100210.06;5094639;28;20115;-68
2022/05/04 02:16:34;;;;;;;15.40;11.32;;;;;;;11.98;100.00;100208.75;5094423;28;20043;-68
2022/05/04 02:19:03;;;;;;;17.48;12.07;;;;;;;11.85;100.00;100210.50;5094374;28;20048;-69
2022/05/04 02:21:31;;;;;;;17.17;11.20;;;;;;;11.85;100.00;100205.16;5075743;28;20079;-68
2022/05/04 02:23:59;;;;;;;15.20;11.60;;;;;;;11.74;100.00;100210.31;5093984;28;20035;-68
2022/05/04 02:26:28;;;;;;;17.58;12.18;;;;;;;11.62;100.00;100213.78;5094286;28;20044;-68
2022/05/04 02:28:58;;;;;;;16.08;11.05;;;;;;;11.62;100.00;100208.44;5075738;28;20062;-69
2022/05/04 02:31:26;;;;;;;15.55;11.63;;;;;;;11.65;100.00;100213.59;5093904;28;20051;-68
2022/05/04 02:33:55;;;;;;;17.17;11.90;;;;;;;11.52;100.00;100199.31;5074858;28;20048;-69
2022/05/04 02:39:09;;;;;;;14.07;11.15;;;;;;;11.75;100.00;100209.34;5094101;28;20495;-68
2022/05/04 02:41:37;;;;;;;16.27;11.13;;;;;;;11.68;100.00;100216.06;5093743;28;20400;-74
2022/05/04 02:44:07;;;;;;;18.38;11.68;;;;;;;11.63;100.00;100212.84;5093689;28;20043;-68
2022/05/04 02:46:35;;;;;;;16.08;12.65;;;;;;;11.60;100.00;100211.22;5075698;28;20477;-67
2022/05/04 02:49:03;;;;;;;19.02;11.82;;;;;;;11.56;100.00;100216.84;5075680;28;20070;-67
2022/05/04 02:51:31;;;;;;;16.23;11.75;;;;;;;11.45;100.00;100217.53;5094105;28;20097;-67
2022/05/04 02:54:00;;;;;;;17.83;13.13;;;;;;;11.36;100.00;100221.66;5093377;28;20115;-67
2022/05/04 02:56:28;;;;;;;18.75;13.80;;;;;;;11.29;100.00;100216.81;5093799;28;20477;-67
2022/05/04 02:58:56;;;;;;;18.02;13.45;;;;;;;11.50;100.00;100225.28;5093432;28;20442;-67
2022/05/04 03:04:12;;;;;;;20.30;13.00;;;;;;;11.62;100.00;100227.16;5093359;28;20075;-67
2022/05/04 03:06:42;;;;;;;19.23;13.45;;;;;;;11.60;100.00;100231.75;5093375;28;20040;-69
2022/05/04 03:09:11;;;;;;;17.55;13.10;;;;;;;11.59;100.00;100220.19;5093495;28;20046;-69
2022/05/04 03:11:57;;;;;;;19.85;12.82;;;;;;;11.51;100.00;100232.34;5093366;28;20460;-72
2022/05/04 03:14:28;;;;;;;18.98;13.18;;;;;;;11.44;100.00;100232.72;5093616;28;20078;-69
2022/05/04 03:17:00;;;;;;;18.50;13.00;;;;;;;11.41;100.00;100227.59;5093408;28;20036;-69
2022/05/04 03:19:29;;;;;;;16.10;12.30;;;;;;;11.46;100.00;100225.47;5075297;28;20048;-69
2022/05/04 03:21:57;;;;;;;18.83;14.18;;;;;;;11.18;100.00;100230.84;5092950;28;20139;-69
2022/05/04 03:24:28;;;;;;;19.63;13.23;;;;;;;11.12;100.00;100228.56;5093035;28;20044;-69
2022/05/04 03:26:56;;;;;;;19.52;12.80;;;;;;;11.33;100.00;100237.88;5093313;28;20093;-69
2022/05/04 03:29:24;;;;;;;19.77;13.02;;;;;;;11.44;100.00;100227.38;5075408;28;20055;-68
2022/05/04 03:31:52;;;;;;;19.67;13.10;;;;;;;11.23;100.00;100235.91;5092981;28;20048;-69
2022/05/04 03:34:22;;;;;;;17.33;13.38;;;;;;;11.35;100.00;100233.31;5093207;28;20055;-70
2022/05/04 03:36:51;;;;;;;23.08;14.13;;;;;;;11.31;100.00;100237.13;5093064;28;20139;-71
2022/05/04 03:39:19;;;;;;;18.90;13.77;;;;;;;11.25;100.00;100242.00;5075079;28;20048;-71
2022/05/04 03:41:48;;;;;;;20.90;13.55;;;;;;;11.24;100.00;100243.81;5092685;28;20118;-72
2022/05/04 03:44:17;;;;;;;17.17;13.57;;;;;;;11.25;100.00;100242.00;5093448;28;20043;-72
2022/05/04 03:46:47;;;;;;;19.83;13.55;;;;;;;11.32;100.00;100243.34;5097070;28;20094;-72
2022/05/04 03:49:17;;;;;;;19.55;13.60;;;;;;;11.47;100.00;100250.34;5079087;28;20055;-71
2022/05/04 03:51:47;;;;;;;17.67;12.35;;;;;;;11.62;100.00;100252.06;5097118;28;20036;-72
2022/05/04 03:54:15;;;;;;;19.73;12.70;;;;;;;11.80;100.00;100250.03;5097405;28;20131;-72
2022/05/04 03:56:44;;;;;;;17.75;12.80;;;;;;;11.95;100.00;100249.00;5096837;28;20051;-74
2022/05/04 03:59:12;;;;;;;18.50;12.13;;;;;;;12.34;100.00;100252.66;5096951;28;20051;-73
2022/05/04 04:01:41;;;;;;;17.45;12.63;;;;;;;12.52;100.00;100255.91;5097010;28;20071;-73
2022/05/04 04:04:09;;;;;;;17.88;11.57;;;;;;;12.77;100.00;100263.13;5096789;28;20093;-70
2022/05/04 04:06:37;;;;;;;16.27;12.30;;;;;;;12.95;100.00;100256.50;5096878;28;20115;-70
2022/05/04 04:09:07;;;;;;;19.80;12.43;;;;;;;13.00;100.00;100258.84;5078358;28;20130;-70
2022/05/04 04:11:35;;;;;;;17.45;12.10;;;;;;;13.08;100.00;100256.50;5096430;28;20115;-70
2022/05/04 04:14:04;;;;;;;18.02;12.55;;;;;;;12.86;100.00;100258.00;5096535;28;20048;-70
2022/05/04 04:16:32;;;;;;;17.90;13.32;;;;;;;12.84;100.00;100267.09;5078437;28;20131;-70
2022/05/04 04:19:01;;;;;;;16.40;12.32;;;;;;;12.63;100.00;100263.22;5096515;28;20602;-70
2022/05/04 04:24:16;;;;;;;17.15;13.27;;;;;;;12.01;100.00;100272.69;5078369;28;20072;-71
2022/05/04 04:26:44;;;;;;;16.30;13.18;;;;;;;11.95;100.00;100270.41;5096373;28;20081;-75
2022/05/04 04:29:13;;;;;;;16.52;12.75;;;;;;;11.97;100.00;100273.84;5078524;28;20098;-70
2022/05/04 04:31:41;;;;;;;18.13;13.02;;;;;;;11.99;100.00;100271.06;5096502;28;20040;-71
2022/05/04 04:34:10;;;;;;;19.13;12.70;;;;;;;12.02;100.00;100270.88;5096406;28;20051;-71
2022/05/04 04:36:40;;;;;;;18.48;12.93;;;;;;;12.03;100.00;100270.75;5096558;28;20040;-72
2022/05/04 04:39:09;;;;;;;18.33;13.50;;;;;;;12.03;100.00;100273.44;5095740;28;20068;-71
2022/05/04 04:41:39;;;;;;;17.25;13.05;;;;;;;12.10;100.00;100276.56;5096264;28;20071;-71
2022/05/04 04:44:07;;;;;;;17.63;13.50;;;;;;;12.20;100.00;100274.16;5096071;28;20032;-71
2022/05/04 04:46:36;;;;;;;19.23;13.30;;;;;;;12.38;100.00;100278.25;5096009;28;20093;-71
2022/05/04 04:49:04;;;;;;;16.30;13.43;;;;;;;12.40;100.00;100281.69;5095977;28;20070;-72
2022/05/04 04:51:32;;;;;;;18.95;12.82;;;;;;;12.56;100.00;100281.53;5077966;28;20394;-71
2022/05/04 04:54:01;;;;;;;18.38;13.05;;;;;;;12.69;100.00;100278.84;5095829;28;20040;-71
2022/05/04 04:56:29;;;;;;;17.00;12.57;;;;;;;12.74;100.00;100287.41;5095154;28;20047;-71
2022/05/04 04:58:59;;;;;;;18.38;13.20;;;;;;;12.91;100.00;100281.75;5095672;28;20042;-71
2022/05/04 05:01:27;;;;;;;20.20;13.10;;;;;;;13.00;100.00;100278.44;5096389;28;20093;-71
2022/05/04 05:03:56;;;;;;;18.98;13.77;;;;;;;13.05;100.00;100279.00;5077264;28;20134;-71
2022/05/04 05:06:25;;;;;;;17.60;13.43;;;;;;;13.01;100.00;100277.47;5095307;28;20425;-71
2022/05/04 05:08:53;;;;;;;19.83;14.18;;;;;;;13.31;100.00;100279.00;5095293;28;20051;-72
2022/05/04 05:11:23;;;;;;;19.05;13.55;;;;;;;13.65;100.00;100278.28;5095506;28;20044;-71
2022/05/04 05:16:38;;;;;;;17.75;13.20;;;;;;;13.99;100.00;100278.50;5095502;28;20119;-69
2022/05/04 05:19:07;;;;;;;16.38;12.52;;;;;;;13.86;100.00;100277.69;5095205;28;20037;-71
2022/05/04 05:21:38;;;;;;;18.50;13.38;;;;;;;14.12;100.00;100282.00;5095280;28;20497;-69
2022/05/04 05:24:07;;;;;;;18.23;13.55;;;;;;;13.92;100.00;100286.16;5094733;28;20056;-69
2022/05/04 05:26:35;;;;;;;20.40;13.65;;;;;;;14.22;100.00;100288.38;5095007;28;20074;-68
2022/05/04 05:29:04;;;;;;;20.45;14.85;;;;;;;14.59;100.00;100288.34;5094640;28;20048;-68
2022/05/04 05:31:39;;;;;;;17.98;14.82;;;;;;;14.72;100.00;100296.28;5077209;28;20040;-68
2022/05/04 05:34:07;;;;;;;20.58;14.88;;;;;;;15.01;100.00;100299.41;5094937;28;20127;-69
2022/05/04 05:36:36;;;;;;;22.17;14.40;;;;;;;15.10;100.00;100301.38;5094829;28;20423;-68
2022/05/04 05:39:04;;;;;;;19.73;13.80;;;;;;;15.58;100.00;100298.47;5076577;28;20408;-70
2022/05/04 05:41:32;;;;;;;20.10;12.98;;;;;;;16.29;100.00;100299.84;5094920;28;20071;-70
2022/05/04 05:44:01;;;;;;;18.30;14.52;;;;;;;15.92;100.00;100300.19;5094626;28;20123;-71
2022/05/04 05:46:30;;;;;;;17.58;13.48;;;;;;;15.54;100.00;100299.69;5094853;28;20044;-71
2022/05/04 05:49:00;;;;;;;18.77;13.30;;;;;;;15.36;100.00;100302.88;5094489;28;20064;-71
2022/05/04 05:51:28;;;;;;;18.38;13.25;;;;;;;15.21;100.00;100303.22;5076279;28;20044;-70
2022/05/04 05:53:56;;;;;;;20.67;14.82;;;;;;;14.91;100.00;100306.47;5094387;28;20496;-71
2022/05/04 05:56:25;;;;;;;22.30;15.65;;;;;;;14.86;100.00;100306.81;5076224;28;20564;-70
2022/05/04 05:58:53;;;;;;;22.55;14.57;;;;;;;15.07;100.00;100307.88;5094265;28;20131;-70
2022/05/04 06:01:21;;;;;;;20.63;14.27;;;;;;;15.42;100.00;100307.75;5094064;28;20457;-70
2022/05/04 06:03:52;;;;;;;19.63;14.52;;;;;;;15.56;100.00;100308.50;5094277;28;20051;-77
2022/05/04 06:06:22;;;;;;;18.90;12.95;;;;;;;15.50;100.00;100309.00;5094224;28;20071;-72
2022/05/04 06:08:51;;;;;;;16.42;11.88;;;;;;;15.82;100.00;100314.50;5094274;28;20040;-72
2022/05/04 06:11:19;;;;;;;14.25;10.50;;;;;;;15.97;100.00;100308.72;5094475;28;20040;-72
2022/05/04 06:13:51;;;;;;;13.02;10.32;;;;;;;15.75;100.00;100314.16;5094135;28;20404;-71
2022/05/04 06:16:19;;;;;;;14.60;10.65;;;;;;;16.08;100.00;100320.44;5094225;28;20111;-73
2022/05/04 06:18:48;;;;;;;13.52;10.75;;;;;;;16.06;100.00;100314.34;5094241;28;20046;-73
2022/05/04 06:21:16;;;;;;;16.45;11.45;;;;;;;16.12;100.00;100327.31;5093720;28;20127;-73
2022/05/04 06:23:46;;;;;;;17.05;11.77;;;;;;;16.23;100.00;100325.44;5094488;28;20217;-73
2022/05/04 06:26:15;;;;;;;16.88;12.10;;;;;;;16.41;100.00;100328.44;5075704;28;20052;-72
2022/05/04 06:28:43;;;;;;;14.85;11.68;;;;;;;16.83;100.00;100329.38;5094256;28;20040;-71
2022/05/04 06:34:10;;;;;;;16.08;11.98;;;;;;;17.73;100.00;100318.00;5093561;28;20040;-69
2022/05/04 06:36:43;;;;;;;21.00;12.88;;;;;;;18.43;100.00;100324.25;5093936;28;20115;-68
2022/05/04 06:39:13;;;;;;;17.42;12.55;;;;;;;17.98;100.00;100322.91;5093665;28;20040;-69
2022/05/04 06:41:41;;;;;;;15.95;12.38;;;;;;;18.16;100.00;100324.94;5093883;28;20123;-69
2022/05/04 06:44:09;;;;;;;15.68;12.75;;;;;;;18.31;100.00;100318.97;5075626;28;20060;-69
2022/05/04 06:46:41;;;;;;;19.15;12.75;;;;;;;18.25;100.00;100318.72;5075325;28;20127;-71
2022/05/04 06:49:12;;;;;;;21.92;14.18;;;;;;;18.12;100.00;100318.94;5075312;28;20052;-72
2022/05/04 06:51:40;;;;;;;21.25;14.52;;;;;;;18.04;100.00;100316.09;5093310;28;20552;-73
2022/05/04 06:54:09;;;;;;;18.80;13.60;;;;;;;18.34;100.00;100314.31;5075388;28;20094;-72
2022/05/04 06:56:53;;;;;;;19.25;13.15;;;;;;;18.70;100.00;100301.97;5104420;28;20048;-73
2022/05/04 06:59:22;;;;;;;18.98;12.75;;;;;;;18.71;100.00;100312.63;5095052;28;20095;-75
2022/05/04 07:01:51;;;;;;;18.67;13.85;;;;;;;18.86;100.00;100313.91;5071612;28;20053;-76
2022/05/04 07:04:20;;;;;;;17.10;12.65;;;;;;;19.28;100.00;100318.94;5054795;28;20131;-76
2022/05/04 07:06:49;;;;;;;14.73;11.73;;;;;;;19.65;100.00;100310.88;5072977;28;20044;-74
2022/05/04 07:09:17;;;;;;;14.88;11.23;;;;;;;19.44;100.00;100312.94;5072832;28;20044;-75
2022/05/04 07:11:46;;;;;;;13.00;11.27;;;;;;;19.20;100.00;100317.97;5055248;28;20056;-73
2022/05/04 07:14:19;;;;;;;17.27;12.02;;;;;;;19.17;100.00;100311.00;5054690;28;20174;-74
2022/05/04 07:16:48;;;;;;;17.77;12.43;;;;;;;19.63;100.00;100312.03;5072479;28;20131;-75
2022/05/04 07:19:16;;;;;;;22.77;12.13;;;;;;;19.48;100.00;100317.03;5071809;28;20044;-74
2022/05/04 07:21:46;;;;;;;18.88;12.25;;;;;;;19.60;100.00;100317.75;5072846;28;20386;-73
2022/05/04 07:24:14;;;;;;;13.68;10.38;;;;;;;20.00;100.00;100320.97;5072261;28;20055;-72
2022/05/04 07:26:42;;;;;;;17.70;11.40;;;;;;;20.18;100.00;100317.47;5071513;28;20135;-73
2022/05/04 07:29:11;;;;;;;15.75;10.10;;;;;;;19.95;100.00;100317.00;5072215;28;20062;-73
2022/05/04 07:31:44;;;;;;;18.10;10.48;;;;;;;20.01;100.00;100327.25;5072704;28;20094;-74
2022/05/04 07:34:14;;;;;;;17.40;11.10;;;;;;;19.90;100.00;100325.59;5072621;28;20040;-72
2022/05/04 07:36:42;;;;;;;14.20;10.27;;;;;;;19.92;100.00;100326.28;5072829;28;20051;-74
2022/05/04 07:42:21;;;;;;;16.05;10.82;;;;;;;20.16;100.00;100319.44;5071091;28;20048;-69
2022/05/04 07:44:46;;;;;;;13.63;8.68;;;;;;;19.95;100.00;100322.41;5071675;28;20048;-72
2022/05/04 07:47:18;;;;;;;14.43;8.68;;;;;;;19.59;100.00;100321.44;5071400;28;20063;-73
2022/05/04 07:49:48;;;;;;;14.82;8.10;;;;;;;19.91;100.00;100321.03;5071607;28;20056;-72
2022/05/04 07:52:17;;;;;;;15.95;9.35;;;;;;;20.10;100.00;100320.06;5072288;28;20045;-73
2022/05/04 07:54:45;;;;;;;12.95;8.07;;;;;;;20.02;100.00;100313.53;5072756;28;20040;-71
2022/05/04 07:57:14;;;;;;;13.00;7.47;;;;;;;20.16;100.00;100320.28;5073817;28;20052;-72
2022/05/04 07:59:42;;;;;;;13.95;7.00;;;;;;;20.34;100.00;100320.31;5092339;28;20044;-72
2022/05/04 08:04:58;;;;;;;11.13;6.32;;;;;;;20.22;84.06;100321.53;5092994;28;20048;-72
2022/05/04 08:07:26;;;;;;;9.38;6.07;;;;;;;20.07;83.44;100309.50;5074387;28;20058;-72
2022/05/04 08:09:55;;;;;;;8.20;5.95;;;;;;;20.13;83.79;100325.16;5092760;28;20047;-72
2022/05/04 08:12:23;;;;;;;9.02;6.00;;;;;;;20.31;80.45;100317.94;5092224;28;20048;-72
2022/05/04 08:14:51;;;;;;;9.40;5.22;;;;;;;20.23;77.20;100320.53;5092723;28;20397;-71
2022/05/04 08:17:21;;;;;;;6.68;4.82;;;;;;;20.11;77.12;100319.91;5092423;28;20477;-71
2022/05/04 08:19:49;;;;;;;8.82;5.10;;;;;;;20.15;77.71;100323.16;5092334;28;20074;-71
2022/05/04 08:22:19;;;;;;;6.30;4.60;;;;;;;20.19;77.20;100321.88;5073738;28;20052;-72
2022/05/04 08:24:47;;;;;;;6.82;4.72;;;;;;;20.21;76.22;100322.56;5074689;28;20546;-71
2022/05/04 08:27:16;;;;;;;5.78;4.03;;;;;;;20.30;72.49;100327.91;5074266;28;20059;-71
2022/05/04 08:29:44;;;;;;;5.20;3.30;;;;;;;20.33;67.40;100321.31;5092545;28;20126;-71
2022/05/04 08:32:13;;;;;;;7.47;5.00;;;;;;;20.44;67.75;100326.53;5094199;28;20044;-71
2022/05/04 08:34:42;;;;;;;6.78;4.68;;;;;;;20.30;68.01;100321.66;5077650;28;20047;-73
2022/05/04 08:37:10;;;;;;;8.65;4.65;;;;;;;20.32;67.37;100318.78;5077575;28;20386;-73
2022/05/04 08:39:40;;;;;;;8.93;5.20;;;;;;;20.36;69.02;100322.88;5095893;28;20538;-73
2022/05/04 08:42:09;;;;;;;8.18;4.80;;;;;;;20.52;67.31;100332.06;5095299;28;20051;-73
2022/05/04 08:44:40;;;;;;;8.93;5.10;;;;;;;20.55;65.95;100331.72;5095782;28;20118;-73
2022/05/04 08:47:12;;;;;;;9.63;4.88;;;;;;;20.80;66.23;100334.69;5095407;28;20040;-73
2022/05/04 08:49:41;;;;;;;7.20;4.38;;;;;;;20.98;63.34;100338.22;5095352;28;20123;-73
2022/05/04 08:52:12;;;;;;;5.85;3.75;;;;;;;20.91;56.77;100331.72;5076382;28;20048;-73
2022/05/04 08:54:42;;;;;;;7.03;4.20;;;;;;;21.06;54.03;100332.88;5077108;28;20459;-73
2022/05/04 08:57:13;;;;;;;6.60;3.60;;;;;;;21.21;48.99;100332.28;5076779;28;20052;-73
2022/05/04 08:59:43;;;;;;;5.75;3.60;;;;;;;21.15;48.30;100331.94;5095096;28;20455;-73
2022/05/04 09:02:11;;;;;;;6.82;3.60;;;;;;;21.08;47.62;100336.28;5094781;28;20481;-72
2022/05/04 09:04:42;;;;;;;7.95;3.90;;;;;;;20.98;46.58;100331.97;5076859;28;20113;-71
2022/05/04 09:07:22;;;;;;;5.90;3.50;;;;;;;21.07;45.45;100326.44;5076870;28;20451;-72
2022/05/04 09:09:53;;;;;;;7.15;3.88;;;;;;;20.98;46.81;100321.13;5077226;28;20450;-72
2022/05/04 09:12:22;;;;;;;5.90;3.75;;;;;;;21.03;46.81;100325.03;5093470;28;20055;-72
2022/05/04 09:14:50;;;;;;;7.63;3.53;;;;;;;20.89;45.69;100328.31;5076881;28;20131;-72
2022/05/04 09:17:22;;;;;;;7.53;3.35;;;;;;;21.01;44.51;100318.94;5077238;28;20055;-72
2022/05/04 09:22:38;;;;;;;6.63;3.60;;;;;;;21.00;44.91;100329.94;5094547;28;20051;-72
2022/05/04 09:25:14;;;;;;;7.70;3.63;;;;;;;21.12;42.98;100328.66;5094996;28;20397;-72
2022/05/04 09:27:43;;;;;;;6.75;3.90;;;;;;;21.17;43.53;100328.22;5077136;28;20048;-72
2022/05/04 09:30:11;;;;;;;6.00;3.80;;;;;;;21.57;43.22;100323.06;5094780;28;20036;-73
2022/05/04 09:32:41;;;;;;;6.38;3.30;;;;;;;21.60;41.50;100328.16;5076416;28;20055;-73
2022/05/04 09:35:13;;;;;;;6.15;3.25;;;;;;;21.44;39.78;100325.38;5094901;28;20105;-74
2022/05/04 09:46:06;;;;;;;10.32;3.40;;;;;;;22.74;38.57;100314.94;5094584;28;20123;-72
2022/05/04 09:48:35;;;;;;;10.15;2.83;;;;;;;22.96;37.90;100309.88;5076594;28;20044;-72
2022/05/04 09:51:05;;;;;;;5.57;3.22;;;;;;;23.21;39.02;100308.00;5076418;28;20044;-72
2022/05/04 09:53:34;;;;;;;5.57;3.55;;;;;;;23.26;38.93;100301.03;5076375;28;20109;-72
2022/05/04 09:56:04;;;;;;;6.20;3.40;;;;;;;23.06;38.19;100305.94;5076558;28;20135;-72
2022/05/04 09:58:33;;;;;;;6.45;4.00;;;;;;;22.74;39.13;100306.78;5094252;28;20477;-72
2022/05/04 10:01:01;;;;;;;8.10;4.00;;;;;;;22.85;39.82;100295.59;5094671;28;20044;-72
2022/05/04 10:03:30;;;;;;;6.55;3.92;;;;;;;22.90;40.06;100296.97;5094308;28;20481;-72
2022/05/04 10:06:01;;;;;;;5.85;3.72;;;;;;;23.04;39.33;100291.69;5076336;28;20062;-72
2022/05/04 10:08:29;;;;;;;6.05;3.85;;;;;;;23.04;39.65;100288.13;5094099;28;20051;-73
2022/05/04 10:10:57;;;;;;;7.40;3.72;;;;;;;23.05;39.98;100284.38;5076089;28;20052;-72
2022/05/04 10:13:28;;;;;;;8.40;3.45;;;;;;;22.88;40.21;100285.44;5075632;28;20066;-73
2022/05/04 10:15:58;;;;;;;5.55;3.85;;;;;;;22.89;39.43;100282.53;5094056;28;20160;-74
2022/05/04 10:18:30;;;;;;;7.40;3.85;;;;;;;22.55;40.05;100279.94;5093852;28;20345;-74
2022/05/04 10:21:05;;;;;;;5.95;3.80;;;;;;;22.40;42.50;100281.63;5093502;28;20426;-72
2022/05/04 10:23:40;;;;;;;8.35;4.10;;;;;;;22.30;41.89;100278.22;5075188;28;20055;-73
2022/05/04 10:26:12;;;;;;;6.32;4.05;;;;;;;22.11;43.07;100277.50;5075697;28;20151;-73
2022/05/04 10:30:30;;;;;;;8.38;3.50;;;;;;;21.94;41.19;100281.16;5075837;28;20076;-73
2022/05/04 10:31:34;;;;;;;9.20;3.65;;;;;;;21.85;45.40;100268.56;5093289;28;20122;-73
2022/05/04 10:34:03;;;;;;;6.43;3.70;;;;;;;21.78;47.78;100275.66;5093570;28;20090;-73
2022/05/04 10:36:46;;;;;;;7.40;3.47;;;;;;;21.90;46.41;100263.47;5075273;28;20135;-72
2022/05/04 10:39:21;;;;;;;6.30;3.38;;;;;;;21.87;42.72;100263.81;5075032;28;20076;-74
2022/05/04 10:41:50;;;;;;;8.75;4.00;;;;;;;21.91;42.53;100262.47;5093888;28;20039;-73
2022/05/04 10:44:53;;;;;;;5.20;3.90;;;;;;;21.87;42.21;100259.22;5075012;28;20044;-74
2022/05/04 10:47:22;;;;;;;5.50;3.63;;;;;;;21.70;41.56;100266.44;5093323;28;20040;-73
2022/05/04 10:50:00;;;;;;;5.68;3.83;;;;;;;21.80;41.39;100260.88;5093471;28;20465;-73
2022/05/04 10:52:32;;;;;;;7.57;3.92;;;;;;;22.11;42.17;100250.34;5093423;28;20123;-73
2022/05/04 10:55:04;;;;;;;9.25;3.70;;;;;;;22.19;41.04;100257.63;5092952;28;20094;-73
2022/05/04 10:57:41;;;;;;;6.97;3.40;;;;;;;22.35;41.40;100256.81;5092949;28;20036;-72
2022/05/04 11:00:31;;;;;;;6.50;3.85;;;;;;;22.27;40.66;100255.78;5093038;28;20054;-72
2022/05/04 11:02:59;;;;;;;5.88;3.75;;;;;;;22.33;40.38;100254.28;5075399;28;20386;-72
2022/05/04 11:05:46;;;;;;;8.90;3.90;;;;;;;22.36;40.15;100247.66;5074849;28;20048;-73
2022/05/04 11:08:24;;;;;;;5.50;3.75;;;;;;;22.39;39.88;100255.44;5075156;28;20557;-73
2022/05/04 11:10:53;;;;;;;5.45;3.80;;;;;;;22.53;39.54;100252.09;5093513;28;20040;-73
2022/05/04 11:13:22;;;;;;;6.47;3.95;;;;;;;22.53;39.48;100243.94;5075162;28;20047;-73
2022/05/04 11:15:53;;;;;;;5.90;3.72;;;;;;;22.74;40.19;100246.97;5075503;28;20052;-73
2022/05/04 11:18:23;;;;;;;6.38;3.60;;;;;;;22.52;39.97;100242.22;5075046;28;20070;-72
2022/05/04 11:20:52;;;;;;;7.65;3.80;;;;;;;22.52;40.82;100247.66;5074839;28;20048;-72
2022/05/04 11:23:24;;;;;;;6.75;3.40;;;;;;;22.19;41.92;100249.47;5074918;28;20048;-72
2022/05/04 11:25:53;;;;;;;7.35;3.28;;;;;;;21.89;44.45;100256.34;5093181;28;20040;-72
2022/05/04 11:28:24;;;;;;;6.60;3.25;;;;;;;21.39;45.34;100257.16;5092861;28;20036;-72
2022/05/04 11:30:54;;;;;;;5.35;3.50;;;;;;;21.48;45.82;100258.91;5093228;28;20040;-72
2022/05/04 11:33:23;;;;;;;6.82;3.90;;;;;;;21.53;46.14;100256.56;5074975;28;20055;-72
2022/05/04 11:35:54;;;;;;;6.72;3.78;;;;;;;21.43;46.92;100251.25;5093004;28;20451;-71
2022/05/04 11:38:23;;;;;;;7.65;3.58;;;;;;;21.60;46.47;100251.31;5092793;28;20119;-71
2022/05/04 11:40:52;;;;;;;5.80;3.63;;;;;;;21.58;47.42;100254.19;5074957;28;20131;-72
2022/05/04 11:43:27;;;;;;;4.68;3.10;;;;;;;21.34;47.56;100256.81;5091556;28;20078;-72
2022/05/04 11:45:57;;;;;;;5.07;3.17;;;;;;;21.12;47.86;100260.88;5092865;28;20044;-72
2022/05/04 11:48:27;;;;;;;5.72;3.35;;;;;;;21.05;48.65;100267.97;5092616;28;20040;-72
2022/05/04 11:50:55;;;;;;;8.40;3.38;;;;;;;21.20;47.94;100274.47;5074365;28;20140;-72
2022/05/04 11:53:23;;;;;;;5.70;3.55;;;;;;;21.39;47.04;100271.56;5092616;28;20047;-72
2022/05/04 11:55:51;;;;;;;8.18;3.53;;;;;;;21.29;47.19;100276.25;5074258;28;20547;-72